Startpagina
METAR-TAF:

METAR-TAF

Vliegvelden :

Luchthaven Helsinki-Vantaa

Helsinki, Finland

breedte: 60-19N, lengte: 024-58E, hoogte: 51 m

Actueel weer

Dit bericht is 10 minuten geleden gemaakt, om 17:50 UTC
Wind 4 kt uit het westnoordwesten, variërend tussen het westen en het noordwesten
Temperatuur 16°C
Vochtigheid 36%
Druk 1021 hPa
Zicht 10 km of meer
geen wolken onder 1500 m en geen cumulonimbus

METAR: EFHK 251750Z 30004KT 260V320 CAVOK 16/01 Q1021 NOSIG

Tijdstip: 21:00 (18:00 UTC)

Verwachting

Dit bericht is 30 minuten geleden gemaakt, om 17:30 UTC
Verwachting geldig van 25 om 18 UTC tot 26 om 18 UTC
Wind 9 kt uit het oosten
Zicht 10 km of meer
geen wolken onder 1500 m en geen cumulonimbus
Kans 30%
van 26 om 10 UTC tot 26 om 18 UTC
Verspreide wolken op 5000 ft, Cumulonimbus.

TAF: EFHK 251730Z 2518/2618 08009KT CAVOK PROB30 2610/2618 SCT050CB

Waarnemingen en weersverwachtingen van meer dan 4000 vliegvelden (METAR en TAF).

De beschikbare stations zijn de gele en rode punten op de kaart.

Ga met uw muis naar het station om de naam te zien.

Klik dan om waarnemingen en weersverwachtingen te zien.

kaart wijzigen: klik op de groene knoppen met een zwart kruis om in te zoomen, op de groene knop met een streepje om uit te zoomen of op de groene pijlen voor aangrenzende kaarten.


METAR-TAF: